sensor_id;sensor_type;location;lat;lon;timestamp;pressure;altitude;pressure_sealevel;temperature;humidity
37852;BME280;23691;52.486;4.650;2022-08-03T00:01:16;101507.28;;;21.81;76.87
37852;BME280;23691;52.486;4.650;2022-08-03T00:03:41;101502.41;;;21.83;77.08
37852;BME280;23691;52.486;4.650;2022-08-03T00:06:07;101500.31;;;21.85;77.02
37852;BME280;23691;52.486;4.650;2022-08-03T00:08:33;101500.53;;;21.83;76.74
37852;BME280;23691;52.486;4.650;2022-08-03T00:10:58;101502.41;;;21.83;77.05
37852;BME280;23691;52.486;4.650;2022-08-03T00:13:24;101498.88;;;21.82;76.71
37852;BME280;23691;52.486;4.650;2022-08-03T00:15:49;101498.25;;;21.80;76.81
37852;BME280;23691;52.486;4.650;2022-08-03T00:18:15;101499.53;;;21.78;77.33
37852;BME280;23691;52.486;4.650;2022-08-03T00:20:40;101495.97;;;21.77;77.21
37852;BME280;23691;52.486;4.650;2022-08-03T00:23:06;101497.88;;;21.77;77.40
37852;BME280;23691;52.486;4.650;2022-08-03T00:25:33;101499.53;;;21.78;77.29
37852;BME280;23691;52.486;4.650;2022-08-03T00:27:59;101492.44;;;21.77;77.35
37852;BME280;23691;52.486;4.650;2022-08-03T00:30:24;101490.78;;;21.76;77.09
37852;BME280;23691;52.486;4.650;2022-08-03T00:32:49;101494.53;;;21.75;76.98
37852;BME280;23691;52.486;4.650;2022-08-03T00:35:15;101491.81;;;21.75;77.22
37852;BME280;23691;52.486;4.650;2022-08-03T00:37:41;101490.38;;;21.72;77.57
37852;BME280;23691;52.486;4.650;2022-08-03T00:40:08;101491.84;;;21.68;77.61
37852;BME280;23691;52.486;4.650;2022-08-03T00:42:33;101478.03;;;21.70;77.64
37852;BME280;23691;52.486;4.650;2022-08-03T00:44:58;101482.88;;;21.68;77.66
37852;BME280;23691;52.486;4.650;2022-08-03T00:47:24;101485.81;;;21.66;77.78
37852;BME280;23691;52.486;4.650;2022-08-03T00:49:49;101477.03;;;21.64;77.72
37852;BME280;23691;52.486;4.650;2022-08-03T00:52:15;101475.16;;;21.64;77.63
37852;BME280;23691;52.486;4.650;2022-08-03T00:54:41;101483.69;;;21.68;77.57
37852;BME280;23691;52.486;4.650;2022-08-03T00:57:07;101469.88;;;21.70;77.11
37852;BME280;23691;52.486;4.650;2022-08-03T00:59:33;101468.63;;;21.65;77.28
37852;BME280;23691;52.486;4.650;2022-08-03T01:01:58;101464.25;;;21.64;77.29
37852;BME280;23691;52.486;4.650;2022-08-03T01:04:24;101467.81;;;21.65;77.74
37852;BME280;23691;52.486;4.650;2022-08-03T01:12:35;101450.31;;;21.54;78.38
37852;BME280;23691;52.486;4.650;2022-08-03T01:15:12;101453.03;;;21.54;78.22
37852;BME280;23691;52.486;4.650;2022-08-03T01:17:55;101462.03;;;21.55;78.47
37852;BME280;23691;52.486;4.650;2022-08-03T01:20:23;101456.81;;;21.53;78.14
37852;BME280;23691;52.486;4.650;2022-08-03T01:25:44;101452.22;;;21.54;78.32
37852;BME280;23691;52.486;4.650;2022-08-03T01:28:30;101449.25;;;21.55;78.30
37852;BME280;23691;52.486;4.650;2022-08-03T01:31:00;101455.75;;;21.54;78.07
37852;BME280;23691;52.486;4.650;2022-08-03T01:33:35;101454.31;;;21.52;78.43
37852;BME280;23691;52.486;4.650;2022-08-03T01:36:03;101453.69;;;21.50;78.70
37852;BME280;23691;52.486;4.650;2022-08-03T01:38:31;101453.50;;;21.51;78.60
37852;BME280;23691;52.486;4.650;2022-08-03T01:41:04;101457.22;;;21.57;78.39
37852;BME280;23691;52.486;4.650;2022-08-03T01:43:31;101456.81;;;21.53;78.45
37852;BME280;23691;52.486;4.650;2022-08-03T01:45:56;101457.03;;;21.52;78.30
37852;BME280;23691;52.486;4.650;2022-08-03T01:48:23;101460.81;;;21.51;78.74
37852;BME280;23691;52.486;4.650;2022-08-03T01:50:50;101447.03;;;21.46;78.61
37852;BME280;23691;52.486;4.650;2022-08-03T01:53:17;101452.47;;;21.46;78.79
37852;BME280;23691;52.486;4.650;2022-08-03T01:55:46;101439.94;;;21.44;78.82
37852;BME280;23691;52.486;4.650;2022-08-03T01:58:14;101444.31;;;21.46;79.16
37852;BME280;23691;52.486;4.650;2022-08-03T02:00:40;101442.25;;;21.41;79.17
37852;BME280;23691;52.486;4.650;2022-08-03T02:03:07;101438.94;;;21.39;79.09
37852;BME280;23691;52.486;4.650;2022-08-03T02:05:34;101437.88;;;21.40;79.36
37852;BME280;23691;52.486;4.650;2022-08-03T02:08:02;101433.50;;;21.39;79.19
37852;BME280;23691;52.486;4.650;2022-08-03T02:10:29;101434.50;;;21.38;79.37
37852;BME280;23691;52.486;4.650;2022-08-03T02:12:58;101435.31;;;21.38;79.12
37852;BME280;23691;52.486;4.650;2022-08-03T02:15:26;101435.56;;;21.37;79.30
37852;BME280;23691;52.486;4.650;2022-08-03T02:17:53;101438.28;;;21.37;79.11
37852;BME280;23691;52.486;4.650;2022-08-03T02:20:19;101434.75;;;21.36;78.87
37852;BME280;23691;52.486;4.650;2022-08-03T02:22:45;101437.47;;;21.36;78.89
37852;BME280;23691;52.486;4.650;2022-08-03T02:25:12;101437.22;;;21.38;79.15
37852;BME280;23691;52.486;4.650;2022-08-03T02:27:54;101432.84;;;21.37;79.16
37852;BME280;23691;52.486;4.650;2022-08-03T02:30:21;101428.88;;;21.33;79.23
37852;BME280;23691;52.486;4.650;2022-08-03T02:32:53;101425.34;;;21.32;79.18
37852;BME280;23691;52.486;4.650;2022-08-03T02:35:21;101429.34;;;21.30;79.34
37852;BME280;23691;52.486;4.650;2022-08-03T02:37:51;101427.66;;;21.29;79.38
37852;BME280;23691;52.486;4.650;2022-08-03T02:40:19;101427.06;;;21.27;79.52
37852;BME280;23691;52.486;4.650;2022-08-03T02:42:48;101429.78;;;21.27;79.58
37852;BME280;23691;52.486;4.650;2022-08-03T02:45:17;101423.50;;;21.26;79.66
37852;BME280;23691;52.486;4.650;2022-08-03T02:47:44;101424.09;;;21.28;79.40
37852;BME280;23691;52.486;4.650;2022-08-03T02:50:11;101416.56;;;21.30;79.26
37852;BME280;23691;52.486;4.650;2022-08-03T02:52:38;101413.69;;;21.25;79.12
37852;BME280;23691;52.486;4.650;2022-08-03T02:55:05;101415.59;;;21.18;79.77
37852;BME280;23691;52.486;4.650;2022-08-03T02:57:34;101412.06;;;21.17;79.85
37852;BME280;23691;52.486;4.650;2022-08-03T03:00:00;101409.09;;;21.19;79.58
37852;BME280;23691;52.486;4.650;2022-08-03T03:02:26;101416.84;;;21.22;79.37
37852;BME280;23691;52.486;4.650;2022-08-03T03:04:54;101408.06;;;21.20;79.11
37852;BME280;23691;52.486;4.650;2022-08-03T03:07:21;101412.69;;;21.19;79.39
37852;BME280;23691;52.486;4.650;2022-08-03T03:09:47;101410.78;;;21.20;79.37
37852;BME280;23691;52.486;4.650;2022-08-03T03:12:13;101409.50;;;21.22;78.94
37852;BME280;23691;52.486;4.650;2022-08-03T03:14:40;101414.53;;;21.19;79.32
37852;BME280;23691;52.486;4.650;2022-08-03T03:17:08;101425.88;;;21.16;79.61
37852;BME280;23691;52.486;4.650;2022-08-03T03:19:35;101419.78;;;21.20;79.21
37852;BME280;23691;52.486;4.650;2022-08-03T03:22:03;101413.22;;;21.28;78.73
37852;BME280;23691;52.486;4.650;2022-08-03T03:24:31;101409.88;;;21.26;78.63
37852;BME280;23691;52.486;4.650;2022-08-03T03:26:57;101413.06;;;21.23;78.65
37852;BME280;23691;52.486;4.650;2022-08-03T03:29:23;101418.50;;;21.23;78.47
37852;BME280;23691;52.486;4.650;2022-08-03T03:31:48;101415.16;;;21.21;78.42
37852;BME280;23691;52.486;4.650;2022-08-03T03:34:14;101418.28;;;21.25;78.25
37852;BME280;23691;52.486;4.650;2022-08-03T03:36:40;101413.69;;;21.25;77.54
37852;BME280;23691;52.486;4.650;2022-08-03T03:39:05;101418.06;;;21.26;77.62
37852;BME280;23691;52.486;4.650;2022-08-03T03:41:31;101411.66;;;21.14;78.01
37852;BME280;23691;52.486;4.650;2022-08-03T03:43:57;101417.38;;;21.06;78.39
37852;BME280;23691;52.486;4.650;2022-08-03T03:46:23;101415.13;;;20.96;78.37
37852;BME280;23691;52.486;4.650;2022-08-03T03:48:48;101412.91;;;20.86;78.95
37852;BME280;23691;52.486;4.650;2022-08-03T03:51:14;101415.84;;;20.85;78.99
37852;BME280;23691;52.486;4.650;2022-08-03T03:53:40;101422.75;;;20.87;78.78
37852;BME280;23691;52.486;4.650;2022-08-03T03:56:06;101411.41;;;20.90;78.80
37852;BME280;23691;52.486;4.650;2022-08-03T03:58:32;101423.75;;;20.93;78.48
37852;BME280;23691;52.486;4.650;2022-08-03T04:00:57;101426.28;;;20.88;78.39
37852;BME280;23691;52.486;4.650;2022-08-03T04:03:23;101419.81;;;20.82;78.63
37852;BME280;23691;52.486;4.650;2022-08-03T04:05:48;101425.25;;;20.82;78.81
37852;BME280;23691;52.486;4.650;2022-08-03T04:08:32;101430.03;;;20.87;78.40
37852;BME280;23691;52.486;4.650;2022-08-03T04:11:20;101421.09;;;20.79;78.79
37852;BME280;23691;52.486;4.650;2022-08-03T04:13:50;101427.78;;;20.77;78.78
37852;BME280;23691;52.486;4.650;2022-08-03T04:16:19;101434.47;;;20.81;78.83
37852;BME280;23691;52.486;4.650;2022-08-03T04:18:50;101433.84;;;20.79;78.77
37852;BME280;23691;52.486;4.650;2022-08-03T04:21:18;101428.66;;;20.77;78.75
37852;BME280;23691;52.486;4.650;2022-08-03T04:23:49;101435.31;;;20.82;78.96
37852;BME280;23691;52.486;4.650;2022-08-03T04:26:20;101433.63;;;20.87;78.47
37852;BME280;23691;52.486;4.650;2022-08-03T04:28:47;101434.00;;;20.91;78.14
37852;BME280;23691;52.486;4.650;2022-08-03T04:31:16;101424.19;;;20.90;78.28
37852;BME280;23691;52.486;4.650;2022-08-03T04:33:43;101431.94;;;20.86;79.07
37852;BME280;23691;52.486;4.650;2022-08-03T04:36:13;101433.19;;;20.90;78.83
37852;BME280;23691;52.486;4.650;2022-08-03T04:41:15;101441.34;;;20.90;79.23
37852;BME280;23691;52.486;4.650;2022-08-03T04:43:41;101447.81;;;20.89;79.21
37852;BME280;23691;52.486;4.650;2022-08-03T04:46:08;101446.34;;;20.87;78.91
37852;BME280;23691;52.486;4.650;2022-08-03T04:48:34;101446.94;;;20.95;79.14
37852;BME280;23691;52.486;4.650;2022-08-03T04:51:00;101441.03;;;21.05;78.62
37852;BME280;23691;52.486;4.650;2022-08-03T04:53:28;101452.91;;;21.11;78.44
37852;BME280;23691;52.486;4.650;2022-08-03T04:55:53;101446.84;;;21.09;78.53
37852;BME280;23691;52.486;4.650;2022-08-03T04:58:19;101450.03;;;21.06;78.83
37852;BME280;23691;52.486;4.650;2022-08-03T05:00:44;101447.03;;;21.14;78.44
37852;BME280;23691;52.486;4.650;2022-08-03T05:03:10;101453.25;;;21.21;78.08
37852;BME280;23691;52.486;4.650;2022-08-03T05:05:35;101442.94;;;21.30;77.96
37852;BME280;23691;52.486;4.650;2022-08-03T05:08:00;101449.38;;;21.35;77.43
37852;BME280;23691;52.486;4.650;2022-08-03T05:10:26;101446.03;;;21.33;77.58
37852;BME280;23691;52.486;4.650;2022-08-03T05:12:51;101453.19;;;21.34;77.76
37852;BME280;23691;52.486;4.650;2022-08-03T05:15:17;101446.88;;;21.34;77.46
37852;BME280;23691;52.486;4.650;2022-08-03T05:17:43;101443.56;;;21.32;77.70
37852;BME280;23691;52.486;4.650;2022-08-03T05:20:09;101453.38;;;21.33;78.00
37852;BME280;23691;52.486;4.650;2022-08-03T05:22:35;101451.91;;;21.37;77.60
37852;BME280;23691;52.486;4.650;2022-08-03T05:25:01;101453.56;;;21.38;77.45
37852;BME280;23691;52.486;4.650;2022-08-03T05:27:27;101452.72;;;21.37;77.56
37852;BME280;23691;52.486;4.650;2022-08-03T05:29:52;101448.34;;;21.36;77.71
37852;BME280;23691;52.486;4.650;2022-08-03T05:32:18;101452.47;;;21.46;77.80
37852;BME280;23691;52.486;4.650;2022-08-03T05:34:43;101445.69;;;21.55;77.54
37852;BME280;23691;52.486;4.650;2022-08-03T05:37:09;101445.91;;;21.53;77.99
37852;BME280;23691;52.486;4.650;2022-08-03T05:39:34;101451.16;;;21.55;77.82
37852;BME280;23691;52.486;4.650;2022-08-03T05:42:00;101447.13;;;21.57;77.81
37852;BME280;23691;52.486;4.650;2022-08-03T05:44:25;101448.59;;;21.60;77.92
37852;BME280;23691;52.486;4.650;2022-08-03T05:46:51;101450.84;;;21.63;77.85
37852;BME280;23691;52.486;4.650;2022-08-03T05:49:17;101447.25;;;21.69;77.87
37852;BME280;23691;52.486;4.650;2022-08-03T05:51:43;101449.22;;;21.80;77.80
37852;BME280;23691;52.486;4.650;2022-08-03T05:54:09;101450.00;;;21.87;77.66
37852;BME280;23691;52.486;4.650;2022-08-03T05:56:34;101446.22;;;21.89;77.94
37852;BME280;23691;52.486;4.650;2022-08-03T05:59:00;101451.06;;;21.86;78.17
37852;BME280;23691;52.486;4.650;2022-08-03T06:01:25;101449.09;;;21.94;77.96
37852;BME280;23691;52.486;4.650;2022-08-03T06:03:51;101445.09;;;21.96;78.21
37852;BME280;23691;52.486;4.650;2022-08-03T06:06:16;101447.06;;;22.07;77.45
37852;BME280;23691;52.486;4.650;2022-08-03T06:08:43;101440.56;;;22.08;77.96
37852;BME280;23691;52.486;4.650;2022-08-03T06:11:09;101433.00;;;22.11;77.63
37852;BME280;23691;52.486;4.650;2022-08-03T06:13:35;101434.16;;;22.21;77.57
37852;BME280;23691;52.486;4.650;2022-08-03T06:16:00;101444.00;;;22.22;77.47
37852;BME280;23691;52.486;4.650;2022-08-03T06:18:26;101446.78;;;22.34;77.48
37852;BME280;23691;52.486;4.650;2022-08-03T06:20:52;101445.97;;;22.34;77.64
37852;BME280;23691;52.486;4.650;2022-08-03T06:23:17;101443.06;;;22.47;77.11
37852;BME280;23691;52.486;4.650;2022-08-03T06:25:42;101451.41;;;22.52;76.76
37852;BME280;23691;52.486;4.650;2022-08-03T06:28:08;101456.16;;;22.57;76.61
37852;BME280;23691;52.486;4.650;2022-08-03T06:30:34;101462.22;;;22.59;76.28
37852;BME280;23691;52.486;4.650;2022-08-03T06:32:59;101452.13;;;22.59;75.96
37852;BME280;23691;52.486;4.650;2022-08-03T06:35:25;101460.72;;;22.63;75.80
37852;BME280;23691;52.486;4.650;2022-08-03T06:37:52;101457.38;;;22.61;75.25
37852;BME280;23691;52.486;4.650;2022-08-03T06:40:20;101460.78;;;22.56;75.44
37852;BME280;23691;52.486;4.650;2022-08-03T06:42:52;101464.34;;;22.57;74.77
37852;BME280;23691;52.486;4.650;2022-08-03T06:45:18;101465.19;;;22.57;75.01
37852;BME280;23691;52.486;4.650;2022-08-03T06:47:43;101464.72;;;22.60;74.68
37852;BME280;23691;52.486;4.650;2022-08-03T06:50:09;101461.38;;;22.58;74.69
37852;BME280;23691;52.486;4.650;2022-08-03T06:52:35;101464.25;;;22.63;74.57
37852;BME280;23691;52.486;4.650;2022-08-03T06:55:00;101464.78;;;22.72;74.64
37852;BME280;23691;52.486;4.650;2022-08-03T06:57:25;101466.09;;;22.81;74.63
37852;BME280;23691;52.486;4.650;2022-08-03T06:59:51;101478.84;;;22.87;74.38
37852;BME280;23691;52.486;4.650;2022-08-03T07:02:17;101469.84;;;22.87;73.77
37852;BME280;23691;52.486;4.650;2022-08-03T07:04:48;101478.97;;;22.92;73.91
37852;BME280;23691;52.486;4.650;2022-08-03T07:07:14;101490.66;;;23.00;73.60
37852;BME280;23691;52.486;4.650;2022-08-03T07:09:40;101486.34;;;22.92;73.05
37852;BME280;23691;52.486;4.650;2022-08-03T07:12:05;101484.16;;;22.82;72.88
37852;BME280;23691;52.486;4.650;2022-08-03T07:14:31;101490.97;;;22.91;72.75
37852;BME280;23691;52.486;4.650;2022-08-03T07:16:56;101496.47;;;23.03;72.83
37852;BME280;23691;52.486;4.650;2022-08-03T07:19:22;101491.88;;;23.04;72.22
37852;BME280;23691;52.486;4.650;2022-08-03T07:21:47;101497.47;;;23.09;71.60
37852;BME280;23691;52.486;4.650;2022-08-03T07:24:12;101490.16;;;23.21;71.26
37852;BME280;23691;52.486;4.650;2022-08-03T07:26:40;101497.41;;;23.27;71.40
37852;BME280;23691;52.486;4.650;2022-08-03T07:29:05;101507.06;;;23.42;70.93
37852;BME280;23691;52.486;4.650;2022-08-03T07:31:31;101506.50;;;23.63;70.34
37852;BME280;23691;52.486;4.650;2022-08-03T07:33:56;101507.69;;;23.67;70.10
37852;BME280;23691;52.486;4.650;2022-08-03T07:36:21;101503.41;;;23.60;70.27
37852;BME280;23691;52.486;4.650;2022-08-03T07:38:48;101517.66;;;23.62;69.74
37852;BME280;23691;52.486;4.650;2022-08-03T07:41:14;101511.97;;;23.63;69.27
37852;BME280;23691;52.486;4.650;2022-08-03T07:43:40;101513.63;;;23.64;69.23
37852;BME280;23691;52.486;4.650;2022-08-03T07:46:05;101519.75;;;23.78;68.54
37852;BME280;23691;52.486;4.650;2022-08-03T07:48:30;101528.06;;;23.95;68.10
37852;BME280;23691;52.486;4.650;2022-08-03T07:50:56;101520.56;;;24.14;68.08
37852;BME280;23691;52.486;4.650;2022-08-03T07:53:21;101522.56;;;24.18;67.27
37852;BME280;23691;52.486;4.650;2022-08-03T07:55:46;101518.19;;;24.17;67.70
37852;BME280;23691;52.486;4.650;2022-08-03T07:58:12;101515.69;;;24.28;67.22
37852;BME280;23691;52.486;4.650;2022-08-03T08:00:40;101523.06;;;24.27;67.09
37852;BME280;23691;52.486;4.650;2022-08-03T08:03:06;101526.72;;;24.33;66.81
37852;BME280;23691;52.486;4.650;2022-08-03T08:05:32;101532.66;;;24.53;65.85
37852;BME280;23691;52.486;4.650;2022-08-03T08:07:58;101532.88;;;24.63;65.21
37852;BME280;23691;52.486;4.650;2022-08-03T08:10:24;101523.84;;;24.63;65.02
37852;BME280;23691;52.486;4.650;2022-08-03T08:12:50;101532.66;;;24.65;65.14
37852;BME280;23691;52.486;4.650;2022-08-03T08:15:15;101530.59;;;24.72;64.53
37852;BME280;23691;52.486;4.650;2022-08-03T08:17:46;101528.97;;;24.71;64.22
37852;BME280;23691;52.486;4.650;2022-08-03T08:20:16;101532.84;;;24.75;64.52
37852;BME280;23691;52.486;4.650;2022-08-03T08:22:41;101514.53;;;24.76;63.87
37852;BME280;23691;52.486;4.650;2022-08-03T08:25:07;101530.28;;;24.69;64.36
37852;BME280;23691;52.486;4.650;2022-08-03T08:27:33;101536.59;;;24.57;64.55
37852;BME280;23691;52.486;4.650;2022-08-03T08:30:05;101536.47;;;24.64;64.30
37852;BME280;23691;52.486;4.650;2022-08-03T08:32:30;101538.25;;;24.58;64.37
37852;BME280;23691;52.486;4.650;2022-08-03T08:34:56;101533.25;;;24.43;64.55
37852;BME280;23691;52.486;4.650;2022-08-03T08:37:21;101542.91;;;24.46;64.94
37852;BME280;23691;52.486;4.650;2022-08-03T08:39:47;101528.41;;;24.46;64.65
37852;BME280;23691;52.486;4.650;2022-08-03T08:42:14;101550.03;;;24.35;65.08
37852;BME280;23691;52.486;4.650;2022-08-03T08:44:39;101546.81;;;24.27;65.09
37852;BME280;23691;52.486;4.650;2022-08-03T08:47:07;101555.16;;;24.32;65.22
37852;BME280;23691;52.486;4.650;2022-08-03T08:49:34;101541.94;;;24.29;65.22
37852;BME280;23691;52.486;4.650;2022-08-03T08:52:02;101544.34;;;24.25;64.93
37852;BME280;23691;52.486;4.650;2022-08-03T08:54:28;101549.19;;;24.23;65.07
37852;BME280;23691;52.486;4.650;2022-08-03T08:57:02;101552.28;;;24.27;65.01
37852;BME280;23691;52.486;4.650;2022-08-03T08:59:31;101545.97;;;24.38;64.93
37852;BME280;23691;52.486;4.650;2022-08-03T09:01:58;101551.47;;;24.50;64.46
37852;BME280;23691;52.486;4.650;2022-08-03T09:04:23;101541.69;;;24.54;64.36
37852;BME280;23691;52.486;4.650;2022-08-03T09:06:49;101544.81;;;24.46;64.51
37852;BME280;23691;52.486;4.650;2022-08-03T09:09:16;101549.66;;;24.43;64.49
37852;BME280;23691;52.486;4.650;2022-08-03T09:11:42;101549.69;;;24.32;64.38
37852;BME280;23691;52.486;4.650;2022-08-03T09:14:08;101555.03;;;24.50;64.39
37852;BME280;23691;52.486;4.650;2022-08-03T09:16:34;101551.38;;;24.85;63.65
37852;BME280;23691;52.486;4.650;2022-08-03T09:19:12;101554.28;;;25.07;63.25
37852;BME280;23691;52.486;4.650;2022-08-03T09:21:38;101560.00;;;25.05;62.58
37852;BME280;23691;52.486;4.650;2022-08-03T09:24:05;101558.56;;;25.03;62.49
37852;BME280;23691;52.486;4.650;2022-08-03T09:26:33;101560.13;;;25.11;62.02
37852;BME280;23691;52.486;4.650;2022-08-03T09:31:38;101555.25;;;25.58;61.00
37852;BME280;23691;52.486;4.650;2022-08-03T09:34:06;101561.16;;;25.50;60.86
37852;BME280;23691;52.486;4.650;2022-08-03T09:36:46;101544.97;;;25.65;60.48
37852;BME280;23691;52.486;4.650;2022-08-03T09:39:13;101546.56;;;25.95;60.31
37852;BME280;23691;52.486;4.650;2022-08-03T09:41:40;101557.09;;;26.03;59.86
37852;BME280;23691;52.486;4.650;2022-08-03T09:44:06;101551.88;;;26.02;59.50
37852;BME280;23691;52.486;4.650;2022-08-03T09:46:47;101545.38;;;25.74;59.84
37852;BME280;23691;52.486;4.650;2022-08-03T09:49:13;101552.75;;;25.74;60.30
37852;BME280;23691;52.486;4.650;2022-08-03T09:51:39;101551.69;;;25.75;59.92
37852;BME280;23691;52.486;4.650;2022-08-03T09:54:05;101547.28;;;25.74;60.20
37852;BME280;23691;52.486;4.650;2022-08-03T09:56:45;101553.38;;;25.92;59.97
37852;BME280;23691;52.486;4.650;2022-08-03T09:59:12;101548.13;;;26.08;59.44
37852;BME280;23691;52.486;4.650;2022-08-03T10:01:38;101546.41;;;26.02;58.96
37852;BME280;23691;52.486;4.650;2022-08-03T10:04:10;101546.72;;;25.88;58.65
37852;BME280;23691;52.486;4.650;2022-08-03T10:06:37;101542.72;;;25.79;59.88
37852;BME280;23691;52.486;4.650;2022-08-03T10:11:35;101549.63;;;25.99;59.24
37852;BME280;23691;52.486;4.650;2022-08-03T10:14:06;101553.13;;;25.94;58.73
37852;BME280;23691;52.486;4.650;2022-08-03T10:16:38;101556.44;;;25.96;58.53
37852;BME280;23691;52.486;4.650;2022-08-03T10:19:05;101558.53;;;25.89;58.88
37852;BME280;23691;52.486;4.650;2022-08-03T10:21:33;101553.88;;;25.89;59.37
37852;BME280;23691;52.486;4.650;2022-08-03T10:24:04;101555.31;;;25.92;58.90
37852;BME280;23691;52.486;4.650;2022-08-03T10:26:36;101559.25;;;26.01;58.98
37852;BME280;23691;52.486;4.650;2022-08-03T10:29:04;101561.03;;;25.90;58.66
37852;BME280;23691;52.486;4.650;2022-08-03T10:31:41;101558.94;;;25.98;59.08
37852;BME280;23691;52.486;4.650;2022-08-03T10:34:18;101558.44;;;26.01;58.33
37852;BME280;23691;52.486;4.650;2022-08-03T10:36:48;101555.03;;;26.10;58.31
37852;BME280;23691;52.486;4.650;2022-08-03T10:39:18;101567.38;;;26.30;58.56
37852;BME280;23691;52.486;4.650;2022-08-03T10:41:44;101562.09;;;26.45;58.27
37852;BME280;23691;52.486;4.650;2022-08-03T10:44:18;101568.69;;;26.44;57.55
37852;BME280;23691;52.486;4.650;2022-08-03T10:46:44;101559.72;;;26.32;58.01
37852;BME280;23691;52.486;4.650;2022-08-03T10:49:14;101575.75;;;26.40;58.33
37852;BME280;23691;52.486;4.650;2022-08-03T10:51:44;101569.69;;;26.38;58.29
37852;BME280;23691;52.486;4.650;2022-08-03T10:54:39;101568.22;;;26.52;58.18
37852;BME280;23691;52.486;4.650;2022-08-03T11:00:09;101551.81;;;26.35;57.94
37852;BME280;23691;52.486;4.650;2022-08-03T11:03:01;101553.41;;;26.31;57.96
37852;BME280;23691;52.486;4.650;2022-08-03T11:05:29;101550.22;;;26.40;58.00
37852;BME280;23691;52.486;4.650;2022-08-03T11:10:42;101547.28;;;26.63;57.20
37852;BME280;23691;52.486;4.650;2022-08-03T11:13:08;101547.09;;;26.70;57.28
37852;BME280;23691;52.486;4.650;2022-08-03T11:15:35;101541.34;;;26.71;57.11
37852;BME280;23691;52.486;4.650;2022-08-03T11:18:11;101551.97;;;26.90;57.01
37852;BME280;23691;52.486;4.650;2022-08-03T11:20:53;101541.03;;;27.17;56.94
37852;BME280;23691;52.486;4.650;2022-08-03T11:23:44;101548.78;;;27.47;56.23
37852;BME280;23691;52.486;4.650;2022-08-03T11:26:15;101548.88;;;27.57;55.48
37852;BME280;23691;52.486;4.650;2022-08-03T11:28:43;101536.25;;;27.61;55.05
37852;BME280;23691;52.486;4.650;2022-08-03T11:34:04;101544.78;;;27.60;54.91
37852;BME280;23691;52.486;4.650;2022-08-03T11:39:53;101542.63;;;27.67;55.01
37852;BME280;23691;52.486;4.650;2022-08-03T11:44:48;101544.44;;;27.56;54.47
37852;BME280;23691;52.486;4.650;2022-08-03T11:47:14;101546.88;;;27.48;54.60
37852;BME280;23691;52.486;4.650;2022-08-03T11:49:44;101550.38;;;27.43;54.67
37852;BME280;23691;52.486;4.650;2022-08-03T11:52:10;101546.41;;;27.61;54.57
37852;BME280;23691;52.486;4.650;2022-08-03T11:54:36;101547.56;;;27.65;54.52
37852;BME280;23691;52.486;4.650;2022-08-03T11:57:01;101540.47;;;27.69;53.89
37852;BME280;23691;52.486;4.650;2022-08-03T11:59:34;101532.00;;;27.81;54.40
37852;BME280;23691;52.486;4.650;2022-08-03T12:02:06;101533.56;;;27.99;54.07
37852;BME280;23691;52.486;4.650;2022-08-03T12:04:51;101532.09;;;28.29;53.40
37852;BME280;23691;52.486;4.650;2022-08-03T12:07:18;101530.72;;;28.26;52.97
37852;BME280;23691;52.486;4.650;2022-08-03T12:10:10;101537.91;;;28.42;52.42
37852;BME280;23691;52.486;4.650;2022-08-03T12:12:37;101539.91;;;28.47;52.27
37852;BME280;23691;52.486;4.650;2022-08-03T12:15:03;101543.78;;;28.46;51.75
37852;BME280;23691;52.486;4.650;2022-08-03T12:17:36;101546.56;;;28.56;52.05
37852;BME280;23691;52.486;4.650;2022-08-03T12:20:05;101538.38;;;28.72;51.55
37852;BME280;23691;52.486;4.650;2022-08-03T12:22:38;101536.69;;;28.65;51.25
37852;BME280;23691;52.486;4.650;2022-08-03T12:25:05;101550.66;;;28.49;51.50
37852;BME280;23691;52.486;4.650;2022-08-03T12:27:31;101544.28;;;28.43;51.77
37852;BME280;23691;52.486;4.650;2022-08-03T12:29:58;101543.78;;;28.46;51.55
37852;BME280;23691;52.486;4.650;2022-08-03T12:32:26;101544.75;;;28.30;51.82
37852;BME280;23691;52.486;4.650;2022-08-03T12:34:52;101539.25;;;28.30;51.77
37852;BME280;23691;52.486;4.650;2022-08-03T12:37:21;101539.41;;;28.55;51.95
37852;BME280;23691;52.486;4.650;2022-08-03T12:39:59;101537.75;;;28.59;50.98
37852;BME280;23691;52.486;4.650;2022-08-03T12:42:36;101541.69;;;28.74;50.96
37852;BME280;23691;52.486;4.650;2022-08-03T12:45:22;101548.59;;;28.86;50.65
37852;BME280;23691;52.486;4.650;2022-08-03T12:47:55;101530.66;;;28.68;50.02
37852;BME280;23691;52.486;4.650;2022-08-03T12:50:31;101542.69;;;28.57;51.25
37852;BME280;23691;52.486;4.650;2022-08-03T12:53:00;101535.56;;;28.56;50.76
37852;BME280;23691;52.486;4.650;2022-08-03T12:55:27;101539.38;;;28.50;51.13
37852;BME280;23691;52.486;4.650;2022-08-03T12:57:58;101543.97;;;28.39;51.37
37852;BME280;23691;52.486;4.650;2022-08-03T13:00:24;101539.91;;;28.47;51.32
37852;BME280;23691;52.486;4.650;2022-08-03T13:03:03;101540.53;;;28.64;51.14
37852;BME280;23691;52.486;4.650;2022-08-03T13:05:29;101538.97;;;28.84;50.72
37852;BME280;23691;52.486;4.650;2022-08-03T13:07:55;101536.81;;;29.01;50.45
37852;BME280;23691;52.486;4.650;2022-08-03T13:10:29;101534.56;;;28.88;50.34
37852;BME280;23691;52.486;4.650;2022-08-03T13:12:55;101538.44;;;28.92;50.13
37852;BME280;23691;52.486;4.650;2022-08-03T13:15:28;101526.91;;;29.05;49.58
37852;BME280;23691;52.486;4.650;2022-08-03T13:17:55;101523.94;;;29.12;49.70
37852;BME280;23691;52.486;4.650;2022-08-03T13:20:21;101523.94;;;29.12;49.77
37852;BME280;23691;52.486;4.650;2022-08-03T13:22:47;101527.72;;;29.01;49.88
37852;BME280;23691;52.486;4.650;2022-08-03T13:25:13;101523.53;;;28.78;50.72